sensor_id;sensor_type;location;lat;lon;timestamp;temperature;humidity
21551;DHT22;10936;49.836;7.078;2023-04-03T05:02:37;0.60;99.90
21551;DHT22;10936;49.836;7.078;2023-04-03T05:05:03;0.60;99.90
21551;DHT22;10936;49.836;7.078;2023-04-03T05:07:29;0.60;99.90
21551;DHT22;10936;49.836;7.078;2023-04-03T05:09:55;0.50;99.90
21551;DHT22;10936;49.836;7.078;2023-04-03T05:12:20;0.60;99.90
21551;DHT22;10936;49.836;7.078;2023-04-03T05:14:46;0.50;99.90
21551;DHT22;10936;49.836;7.078;2023-04-03T05:17:11;0.50;99.90
21551;DHT22;10936;49.836;7.078;2023-04-03T05:19:37;0.50;99.90
21551;DHT22;10936;49.836;7.078;2023-04-03T05:22:02;0.50;99.90
21551;DHT22;10936;49.836;7.078;2023-04-03T05:24:28;0.60;99.90
21551;DHT22;10936;49.836;7.078;2023-04-03T05:26:53;0.60;99.90
21551;DHT22;10936;49.836;7.078;2023-04-03T05:29:19;0.60;99.90
21551;DHT22;10936;49.836;7.078;2023-04-03T05:31:45;0.70;99.90
21551;DHT22;10936;49.836;7.078;2023-04-03T05:34:11;0.80;99.90
21551;DHT22;10936;49.836;7.078;2023-04-03T05:36:36;0.80;99.90
21551;DHT22;10936;49.836;7.078;2023-04-03T05:39:02;0.90;99.90
21551;DHT22;10936;49.836;7.078;2023-04-03T05:41:29;0.90;99.90
21551;DHT22;10936;49.836;7.078;2023-04-03T05:43:54;1.10;99.90
21551;DHT22;10936;49.836;7.078;2023-04-03T05:46:20;1.20;99.90
21551;DHT22;10936;49.836;7.078;2023-04-03T05:48:46;1.30;99.90
21551;DHT22;10936;49.836;7.078;2023-04-03T05:51:24;1.50;99.90
21551;DHT22;10936;49.836;7.078;2023-04-03T05:53:59;2.10;99.90
21551;DHT22;10936;49.836;7.078;2023-04-03T05:56:26;3.70;99.90
21551;DHT22;10936;49.836;7.078;2023-04-03T05:58:51;5.60;99.90
21551;DHT22;10936;49.836;7.078;2023-04-03T06:01:17;6.90;99.90
21551;DHT22;10936;49.836;7.078;2023-04-03T06:03:42;7.60;99.90
21551;DHT22;10936;49.836;7.078;2023-04-03T06:06:10;8.90;99.90
21551;DHT22;10936;49.836;7.078;2023-04-03T06:08:37;9.40;99.90
21551;DHT22;10936;49.836;7.078;2023-04-03T06:11:03;9.90;99.90
21551;DHT22;10936;49.836;7.078;2023-04-03T06:13:29;11.10;99.90
21551;DHT22;10936;49.836;7.078;2023-04-03T06:15:54;10.60;99.90
21551;DHT22;10936;49.836;7.078;2023-04-03T06:18:21;10.00;99.90
21551;DHT22;10936;49.836;7.078;2023-04-03T06:20:46;10.00;99.90
21551;DHT22;10936;49.836;7.078;2023-04-03T06:23:12;9.50;99.90
21551;DHT22;10936;49.836;7.078;2023-04-03T06:25:38;9.70;99.90
21551;DHT22;10936;49.836;7.078;2023-04-03T06:28:03;9.90;99.90
21551;DHT22;10936;49.836;7.078;2023-04-03T06:30:29;10.70;99.90
21551;DHT22;10936;49.836;7.078;2023-04-03T06:32:54;11.50;99.90
21551;DHT22;10936;49.836;7.078;2023-04-03T06:35:20;10.60;99.90
21551;DHT22;10936;49.836;7.078;2023-04-03T06:37:49;11.00;99.90
21551;DHT22;10936;49.836;7.078;2023-04-03T06:40:19;10.40;99.90
21551;DHT22;10936;49.836;7.078;2023-04-03T06:42:46;9.10;99.90
21551;DHT22;10936;49.836;7.078;2023-04-03T06:45:12;9.30;99.90
21551;DHT22;10936;49.836;7.078;2023-04-03T06:47:37;10.40;99.90
21551;DHT22;10936;49.836;7.078;2023-04-03T06:50:03;8.20;99.90
21551;DHT22;10936;49.836;7.078;2023-04-03T06:52:29;10.30;99.90
21551;DHT22;10936;49.836;7.078;2023-04-03T06:54:55;9.80;99.90
21551;DHT22;10936;49.836;7.078;2023-04-03T06:57:23;9.40;99.90
21551;DHT22;10936;49.836;7.078;2023-04-03T06:59:49;9.80;99.90
21551;DHT22;10936;49.836;7.078;2023-04-03T07:02:15;8.40;99.90
21551;DHT22;10936;49.836;7.078;2023-04-03T07:04:41;8.30;99.90
21551;DHT22;10936;49.836;7.078;2023-04-03T07:07:06;8.70;99.90
21551;DHT22;10936;49.836;7.078;2023-04-03T07:09:33;9.20;99.90
21551;DHT22;10936;49.836;7.078;2023-04-03T07:11:59;9.20;99.90
21551;DHT22;10936;49.836;7.078;2023-04-03T07:14:25;10.10;99.90
21551;DHT22;10936;49.836;7.078;2023-04-03T07:16:51;10.30;99.90
21551;DHT22;10936;49.836;7.078;2023-04-03T07:19:17;9.70;99.90
21551;DHT22;10936;49.836;7.078;2023-04-03T07:21:44;10.10;99.90
21551;DHT22;10936;49.836;7.078;2023-04-03T07:24:10;10.00;99.90
21551;DHT22;10936;49.836;7.078;2023-04-03T07:26:35;10.60;99.90
21551;DHT22;10936;49.836;7.078;2023-04-03T07:29:01;9.40;99.90
21551;DHT22;10936;49.836;7.078;2023-04-03T07:31:27;10.30;99.90
21551;DHT22;10936;49.836;7.078;2023-04-03T07:33:53;11.20;99.90
21551;DHT22;10936;49.836;7.078;2023-04-03T07:36:21;13.00;99.90
21551;DHT22;10936;49.836;7.078;2023-04-03T07:38:47;13.40;99.90
21551;DHT22;10936;49.836;7.078;2023-04-03T07:41:15;11.80;99.90
21551;DHT22;10936;49.836;7.078;2023-04-03T07:43:44;11.10;99.90
21551;DHT22;10936;49.836;7.078;2023-04-03T07:46:10;12.10;99.90
21551;DHT22;10936;49.836;7.078;2023-04-03T07:48:36;12.60;99.90
21551;DHT22;10936;49.836;7.078;2023-04-03T07:51:03;13.80;99.90
21551;DHT22;10936;49.836;7.078;2023-04-03T07:53:32;13.10;99.90
21551;DHT22;10936;49.836;7.078;2023-04-03T07:56:00;13.30;99.90
21551;DHT22;10936;49.836;7.078;2023-04-03T07:58:29;13.20;99.90
21551;DHT22;10936;49.836;7.078;2023-04-03T08:00:55;14.10;99.90
21551;DHT22;10936;49.836;7.078;2023-04-03T08:03:20;14.50;99.90
21551;DHT22;10936;49.836;7.078;2023-04-03T08:05:48;14.90;99.90
21551;DHT22;10936;49.836;7.078;2023-04-03T08:08:16;15.60;99.90
21551;DHT22;10936;49.836;7.078;2023-04-03T08:10:42;15.40;99.90
21551;DHT22;10936;49.836;7.078;2023-04-03T08:13:08;14.40;99.90
21551;DHT22;10936;49.836;7.078;2023-04-03T08:15:35;14.80;99.90
21551;DHT22;10936;49.836;7.078;2023-04-03T08:18:01;16.20;99.90
21551;DHT22;10936;49.836;7.078;2023-04-03T08:20:27;16.90;99.90
21551;DHT22;10936;49.836;7.078;2023-04-03T08:22:53;16.80;99.80
21551;DHT22;10936;49.836;7.078;2023-04-03T08:25:19;15.30;99.90
21551;DHT22;10936;49.836;7.078;2023-04-03T08:27:45;15.70;99.90
21551;DHT22;10936;49.836;7.078;2023-04-03T08:30:11;14.80;99.90
21551;DHT22;10936;49.836;7.078;2023-04-03T08:32:37;14.80;99.90
21551;DHT22;10936;49.836;7.078;2023-04-03T08:35:04;14.40;99.90
21551;DHT22;10936;49.836;7.078;2023-04-03T08:37:29;12.70;99.90
21551;DHT22;10936;49.836;7.078;2023-04-03T08:39:55;11.90;99.90
21551;DHT22;10936;49.836;7.078;2023-04-03T08:42:54;13.20;99.90
21551;DHT22;10936;49.836;7.078;2023-04-03T08:48:34;14.40;99.90
21551;DHT22;10936;49.836;7.078;2023-04-03T08:50:46;14.50;99.90
21551;DHT22;10936;49.836;7.078;2023-04-03T08:53:20;15.60;99.90
21551;DHT22;10936;49.836;7.078;2023-04-03T08:55:49;16.90;97.30
21551;DHT22;10936;49.836;7.078;2023-04-03T08:58:25;13.50;99.90
21551;DHT22;10936;49.836;7.078;2023-04-03T09:03:20;13.20;99.90
21551;DHT22;10936;49.836;7.078;2023-04-03T09:06:02;11.10;99.90
21551;DHT22;10936;49.836;7.078;2023-04-03T09:08:42;11.90;99.90
21551;DHT22;10936;49.836;7.078;2023-04-03T09:11:22;9.70;99.90
21551;DHT22;10936;49.836;7.078;2023-04-03T09:14:05;7.70;99.90
21551;DHT22;10936;49.836;7.078;2023-04-03T09:16:45;6.80;99.90
21551;DHT22;10936;49.836;7.078;2023-04-03T09:19:41;7.40;99.90
21551;DHT22;10936;49.836;7.078;2023-04-03T09:22:18;6.60;99.90
21551;DHT22;10936;49.836;7.078;2023-04-03T09:27:39;7.10;99.90
21551;DHT22;10936;49.836;7.078;2023-04-03T09:30:06;7.10;99.90
21551;DHT22;10936;49.836;7.078;2023-04-03T09:32:35;6.40;99.90
21551;DHT22;10936;49.836;7.078;2023-04-03T09:35:19;8.30;99.90
21551;DHT22;10936;49.836;7.078;2023-04-03T09:37:47;9.00;99.90
21551;DHT22;10936;49.836;7.078;2023-04-03T09:45:35;9.90;99.90
21551;DHT22;10936;49.836;7.078;2023-04-03T09:48:07;9.70;99.90
21551;DHT22;10936;49.836;7.078;2023-04-03T09:50:35;8.60;99.90
21551;DHT22;10936;49.836;7.078;2023-04-03T09:53:06;8.80;99.90
21551;DHT22;10936;49.836;7.078;2023-04-03T09:55:42;10.00;99.90
21551;DHT22;10936;49.836;7.078;2023-04-03T09:58:24;10.40;99.90
21551;DHT22;10936;49.836;7.078;2023-04-03T10:01:01;9.10;99.90
21551;DHT22;10936;49.836;7.078;2023-04-03T10:03:34;8.10;99.90
21551;DHT22;10936;49.836;7.078;2023-04-03T10:06:02;6.90;99.90
21551;DHT22;10936;49.836;7.078;2023-04-03T10:08:33;7.30;99.90
21551;DHT22;10936;49.836;7.078;2023-04-03T10:11:08;8.30;99.90
21551;DHT22;10936;49.836;7.078;2023-04-03T10:13:35;8.70;99.90
21551;DHT22;10936;49.836;7.078;2023-04-03T10:16:09;8.10;99.90
21551;DHT22;10936;49.836;7.078;2023-04-03T10:21:35;11.40;99.90
21551;DHT22;10936;49.836;7.078;2023-04-03T10:27:16;9.90;99.90
21551;DHT22;10936;49.836;7.078;2023-04-03T10:30:08;7.90;99.90
21551;DHT22;10936;49.836;7.078;2023-04-03T10:33:06;8.10;99.90
21551;DHT22;10936;49.836;7.078;2023-04-03T10:35:47;8.80;99.90
21551;DHT22;10936;49.836;7.078;2023-04-03T10:38:42;9.90;99.90
21551;DHT22;10936;49.836;7.078;2023-04-03T10:44:42;9.60;99.90
21551;DHT22;10936;49.836;7.078;2023-04-03T10:47:18;9.10;99.90
21551;DHT22;10936;49.836;7.078;2023-04-03T10:50:13;10.50;99.90
21551;DHT22;10936;49.836;7.078;2023-04-03T10:53:05;8.60;99.90
21551;DHT22;10936;49.836;7.078;2023-04-03T10:55:58;7.50;99.90
21551;DHT22;10936;49.836;7.078;2023-04-03T10:58:32;10.10;99.90
21551;DHT22;10936;49.836;7.078;2023-04-03T11:01:06;12.60;99.90
21551;DHT22;10936;49.836;7.078;2023-04-03T11:03:48;12.70;99.90
21551;DHT22;10936;49.836;7.078;2023-04-03T11:06:18;11.20;99.90
21551;DHT22;10936;49.836;7.078;2023-04-03T11:09:23;8.70;99.90
21551;DHT22;10936;49.836;7.078;2023-04-03T11:11:53;7.70;99.90
21551;DHT22;10936;49.836;7.078;2023-04-03T11:14:32;8.20;99.90
21551;DHT22;10936;49.836;7.078;2023-04-03T11:17:19;9.10;99.90
21551;DHT22;10936;49.836;7.078;2023-04-03T11:19:57;8.70;99.90
21551;DHT22;10936;49.836;7.078;2023-04-03T11:22:39;7.60;99.90
21551;DHT22;10936;49.836;7.078;2023-04-03T11:28:13;6.60;99.90
21551;DHT22;10936;49.836;7.078;2023-04-03T11:38:37;13.10;99.90
21551;DHT22;10936;49.836;7.078;2023-04-03T11:41:07;11.10;99.90
21551;DHT22;10936;49.836;7.078;2023-04-03T11:43:36;12.60;99.90
21551;DHT22;10936;49.836;7.078;2023-04-03T11:46:06;13.40;99.90
21551;DHT22;10936;49.836;7.078;2023-04-03T11:53:39;13.20;99.90
21551;DHT22;10936;49.836;7.078;2023-04-03T12:01:52;11.80;99.90
21551;DHT22;10936;49.836;7.078;2023-04-03T12:04:27;10.40;99.90
21551;DHT22;10936;49.836;7.078;2023-04-03T12:07:19;8.40;99.90
21551;DHT22;10936;49.836;7.078;2023-04-03T12:12:32;9.30;99.90
21551;DHT22;10936;49.836;7.078;2023-04-03T12:15:24;7.80;99.90
21551;DHT22;10936;49.836;7.078;2023-04-03T12:17:51;6.80;99.90
21551;DHT22;10936;49.836;7.078;2023-04-03T12:23:56;6.80;99.90
21551;DHT22;10936;49.836;7.078;2023-04-03T12:26:25;6.10;99.90
21551;DHT22;10936;49.836;7.078;2023-04-03T12:28:53;6.60;99.90
21551;DHT22;10936;49.836;7.078;2023-04-03T12:31:19;6.30;99.90
21551;DHT22;10936;49.836;7.078;2023-04-03T12:34:21;6.40;99.90
21551;DHT22;10936;49.836;7.078;2023-04-03T12:37:16;7.00;99.90
21551;DHT22;10936;49.836;7.078;2023-04-03T12:40:07;6.90;99.90
21551;DHT22;10936;49.836;7.078;2023-04-03T12:45:20;6.70;99.90
21551;DHT22;10936;49.836;7.078;2023-04-03T12:47:48;6.80;99.90
21551;DHT22;10936;49.836;7.078;2023-04-03T12:50:23;6.90;99.90
21551;DHT22;10936;49.836;7.078;2023-04-03T12:53:10;6.90;99.90
21551;DHT22;10936;49.836;7.078;2023-04-03T12:55:37;7.50;99.90
21551;DHT22;10936;49.836;7.078;2023-04-03T12:58:22;7.80;99.90
21551;DHT22;10936;49.836;7.078;2023-04-03T13:00:59;7.20;99.90
21551;DHT22;10936;49.836;7.078;2023-04-03T13:03:26;7.00;99.90
21551;DHT22;10936;49.836;7.078;2023-04-03T13:06:00;7.30;99.90
21551;DHT22;10936;49.836;7.078;2023-04-03T13:08:27;7.40;99.90
21551;DHT22;10936;49.836;7.078;2023-04-03T13:11:04;7.00;99.90
21551;DHT22;10936;49.836;7.078;2023-04-03T13:13:31;7.00;99.90
21551;DHT22;10936;49.836;7.078;2023-04-03T13:15:57;6.70;99.90
21551;DHT22;10936;49.836;7.078;2023-04-03T13:18:33;6.80;99.90
21551;DHT22;10936;49.836;7.078;2023-04-03T13:21:03;7.00;99.90
21551;DHT22;10936;49.836;7.078;2023-04-03T13:23:30;7.30;99.90
21551;DHT22;10936;49.836;7.078;2023-04-03T13:25:57;7.10;99.90
21551;DHT22;10936;49.836;7.078;2023-04-03T13:28:26;7.20;99.90
21551;DHT22;10936;49.836;7.078;2023-04-03T13:33:34;6.30;99.90
21551;DHT22;10936;49.836;7.078;2023-04-03T13:36:20;6.00;99.90
21551;DHT22;10936;49.836;7.078;2023-04-03T13:39:02;6.40;99.90
21551;DHT22;10936;49.836;7.078;2023-04-03T13:41:37;7.20;99.90
21551;DHT22;10936;49.836;7.078;2023-04-03T13:46:53;6.70;99.90
21551;DHT22;10936;49.836;7.078;2023-04-03T13:49:36;7.00;99.90
21551;DHT22;10936;49.836;7.078;2023-04-03T13:52:22;7.00;99.90
21551;DHT22;10936;49.836;7.078;2023-04-03T13:54:54;6.90;99.90
21551;DHT22;10936;49.836;7.078;2023-04-03T13:57:21;7.00;99.90
21551;DHT22;10936;49.836;7.078;2023-04-03T13:59:47;7.20;99.90
21551;DHT22;10936;49.836;7.078;2023-04-03T14:02:19;7.10;99.90
21551;DHT22;10936;49.836;7.078;2023-04-03T14:04:51;6.50;99.90
21551;DHT22;10936;49.836;7.078;2023-04-03T14:07:19;6.50;99.90
21551;DHT22;10936;49.836;7.078;2023-04-03T14:09:46;6.70;99.90
21551;DHT22;10936;49.836;7.078;2023-04-03T14:12:21;7.10;99.90
21551;DHT22;10936;49.836;7.078;2023-04-03T14:14:49;6.60;99.90
21551;DHT22;10936;49.836;7.078;2023-04-03T14:17:19;6.20;99.90
21551;DHT22;10936;49.836;7.078;2023-04-03T14:19:45;6.10;99.90
21551;DHT22;10936;49.836;7.078;2023-04-03T14:22:34;6.40;99.90
21551;DHT22;10936;49.836;7.078;2023-04-03T14:25:00;6.90;99.90
21551;DHT22;10936;49.836;7.078;2023-04-03T14:27:35;7.10;99.90
21551;DHT22;10936;49.836;7.078;2023-04-03T14:30:02;6.60;99.90
21551;DHT22;10936;49.836;7.078;2023-04-03T14:32:29;6.80;99.90
21551;DHT22;10936;49.836;7.078;2023-04-03T14:34:56;6.30;99.90
21551;DHT22;10936;49.836;7.078;2023-04-03T14:37:25;5.70;99.90
21551;DHT22;10936;49.836;7.078;2023-04-03T14:39:53;5.60;99.90
21551;DHT22;10936;49.836;7.078;2023-04-03T14:42:24;6.20;99.90
21551;DHT22;10936;49.836;7.078;2023-04-03T14:44:51;6.60;99.90
21551;DHT22;10936;49.836;7.078;2023-04-03T14:47:25;6.80;99.90
21551;DHT22;10936;49.836;7.078;2023-04-03T14:49:53;6.50;99.90
21551;DHT22;10936;49.836;7.078;2023-04-03T14:52:25;6.20;99.90
21551;DHT22;10936;49.836;7.078;2023-04-03T14:54:52;6.20;99.90
21551;DHT22;10936;49.836;7.078;2023-04-03T14:57:22;5.90;99.90
21551;DHT22;10936;49.836;7.078;2023-04-03T14:59:49;6.00;99.90
21551;DHT22;10936;49.836;7.078;2023-04-03T15:02:28;6.30;99.90
21551;DHT22;10936;49.836;7.078;2023-04-03T15:04:55;6.20;99.90
21551;DHT22;10936;49.836;7.078;2023-04-03T15:07:23;5.90;99.90
21551;DHT22;10936;49.836;7.078;2023-04-03T15:09:49;5.70;99.90
21551;DHT22;10936;49.836;7.078;2023-04-03T15:12:16;5.50;99.90
21551;DHT22;10936;49.836;7.078;2023-04-03T15:14:42;5.60;99.90
21551;DHT22;10936;49.836;7.078;2023-04-03T15:17:17;5.90;99.90
21551;DHT22;10936;49.836;7.078;2023-04-03T15:19:43;6.30;99.90
21551;DHT22;10936;49.836;7.078;2023-04-03T15:22:17;6.40;99.90
21551;DHT22;10936;49.836;7.078;2023-04-03T15:24:43;6.30;99.90
21551;DHT22;10936;49.836;7.078;2023-04-03T15:27:10;6.10;99.90
21551;DHT22;10936;49.836;7.078;2023-04-03T15:29:38;6.00;99.90
21551;DHT22;10936;49.836;7.078;2023-04-03T15:32:08;5.80;99.90
21551;DHT22;10936;49.836;7.078;2023-04-03T15:34:34;6.10;99.90
21551;DHT22;10936;49.836;7.078;2023-04-03T15:37:00;6.30;99.90
21551;DHT22;10936;49.836;7.078;2023-04-03T15:39:26;6.50;99.90
21551;DHT22;10936;49.836;7.078;2023-04-03T15:41:53;6.10;99.90
21551;DHT22;10936;49.836;7.078;2023-04-03T15:44:20;5.60;99.90
21551;DHT22;10936;49.836;7.078;2023-04-03T15:46:47;5.40;99.90
21551;DHT22;10936;49.836;7.078;2023-04-03T15:49:14;5.50;99.90
21551;DHT22;10936;49.836;7.078;2023-04-03T15:51:40;5.60;99.90
21551;DHT22;10936;49.836;7.078;2023-04-03T15:54:06;5.80;99.90
21551;DHT22;10936;49.836;7.078;2023-04-03T15:56:31;5.90;99.90
21551;DHT22;10936;49.836;7.078;2023-04-03T15:58:57;6.00;99.90
21551;DHT22;10936;49.836;7.078;2023-04-03T16:01:22;6.10;99.90
21551;DHT22;10936;49.836;7.078;2023-04-03T16:03:48;6.10;99.90
21551;DHT22;10936;49.836;7.078;2023-04-03T16:06:15;5.60;99.90
21551;DHT22;10936;49.836;7.078;2023-04-03T16:08:41;5.40;99.90
21551;DHT22;10936;49.836;7.078;2023-04-03T16:11:07;5.30;99.90
21551;DHT22;10936;49.836;7.078;2023-04-03T16:13:33;5.30;99.90
21551;DHT22;10936;49.836;7.078;2023-04-03T16:15:59;5.30;99.90
21551;DHT22;10936;49.836;7.078;2023-04-03T16:18:26;5.50;99.90
21551;DHT22;10936;49.836;7.078;2023-04-03T16:20:51;5.70;99.90
21551;DHT22;10936;49.836;7.078;2023-04-03T16:23:17;5.80;99.90
21551;DHT22;10936;49.836;7.078;2023-04-03T16:25:43;5.90;99.90
21551;DHT22;10936;49.836;7.078;2023-04-03T16:28:14;5.50;99.90
21551;DHT22;10936;49.836;7.078;2023-04-03T16:30:41;5.30;99.90
21551;DHT22;10936;49.836;7.078;2023-04-03T16:33:07;5.20;99.90
21551;DHT22;10936;49.836;7.078;2023-04-03T16:35:33;5.20;99.90
21551;DHT22;10936;49.836;7.078;2023-04-03T16:37:59;5.20;99.90
21551;DHT22;10936;49.836;7.078;2023-04-03T16:40:25;5.20;99.90
21551;DHT22;10936;49.836;7.078;2023-04-03T16:42:50;5.20;99.90
21551;DHT22;10936;49.836;7.078;2023-04-03T16:45:16;5.20;99.90
21551;DHT22;10936;49.836;7.078;2023-04-03T16:47:41;5.10;99.90
21551;DHT22;10936;49.836;7.078;2023-04-03T16:50:07;5.10;99.90
21551;DHT22;10936;49.836;7.078;2023-04-03T16:52:33;5.00;99.90
21551;DHT22;10936;49.836;7.078;2023-04-03T16:54:59;4.90;99.90
21551;DHT22;10936;49.836;7.078;2023-04-03T16:57:25;4.90;99.90
21551;DHT22;10936;49.836;7.078;2023-04-03T16:59:50;4.80;99.90
21551;DHT22;10936;49.836;7.078;2023-04-03T17:02:17;4.70;99.90
21551;DHT22;10936;49.836;7.078;2023-04-03T17:04:42;4.70;99.90
21551;DHT22;10936;49.836;7.078;2023-04-03T17:07:08;4.70;99.90
21551;DHT22;10936;49.836;7.078;2023-04-03T17:09:34;4.70;99.90
21551;DHT22;10936;49.836;7.078;2023-04-03T17:12:00;4.60;99.90
21551;DHT22;10936;49.836;7.078;2023-04-03T17:14:25;4.60;99.90
21551;DHT22;10936;49.836;7.078;2023-04-03T17:16:51;4.50;99.90
21551;DHT22;10936;49.836;7.078;2023-04-03T17:19:17;4.50;99.90
21551;DHT22;10936;49.836;7.078;2023-04-03T17:21:43;4.40;99.90
21551;DHT22;10936;49.836;7.078;2023-04-03T17:24:11;4.30;99.90
21551;DHT22;10936;49.836;7.078;2023-04-03T17:26:39;4.20;99.90
21551;DHT22;10936;49.836;7.078;2023-04-03T17:29:05;4.20;99.90
21551;DHT22;10936;49.836;7.078;2023-04-03T17:31:31;4.10;99.90
21551;DHT22;10936;49.836;7.078;2023-04-03T17:33:57;4.00;99.90
21551;DHT22;10936;49.836;7.078;2023-04-03T17:36:27;4.00;99.90
21551;DHT22;10936;49.836;7.078;2023-04-03T17:38:52;3.90;99.90
21551;DHT22;10936;49.836;7.078;2023-04-03T17:41:18;3.80;99.90
21551;DHT22;10936;49.836;7.078;2023-04-03T17:43:43;3.70;99.90
21551;DHT22;10936;49.836;7.078;2023-04-03T17:46:09;3.60;99.90
21551;DHT22;10936;49.836;7.078;2023-04-03T17:48:37;3.60;99.90
21551;DHT22;10936;49.836;7.078;2023-04-03T17:51:05;3.50;99.90
21551;DHT22;10936;49.836;7.078;2023-04-03T17:53:31;3.40;99.90
21551;DHT22;10936;49.836;7.078;2023-04-03T17:55:56;3.30;99.90
21551;DHT22;10936;49.836;7.078;2023-04-03T17:58:22;3.20;99.90
21551;DHT22;10936;49.836;7.078;2023-04-03T18:00:48;3.10;99.90
21551;DHT22;10936;49.836;7.078;2023-04-03T18:03:13;3.10;99.90
21551;DHT22;10936;49.836;7.078;2023-04-03T18:05:39;3.20;99.90
21551;DHT22;10936;49.836;7.078;2023-04-03T18:08:04;3.00;99.90
21551;DHT22;10936;49.836;7.078;2023-04-03T18:10:31;2.90;99.90
21551;DHT22;10936;49.836;7.078;2023-04-03T18:12:56;2.70;99.90
21551;DHT22;10936;49.836;7.078;2023-04-03T18:15:23;2.70;99.90
21551;DHT22;10936;49.836;7.078;2023-04-03T18:17:50;2.70;99.90
21551;DHT22;10936;49.836;7.078;2023-04-03T18:20:21;2.70;99.90
21551;DHT22;10936;49.836;7.078;2023-04-03T18:22:47;2.50;99.90
21551;DHT22;10936;49.836;7.078;2023-04-03T18:25:13;2.40;99.90
21551;DHT22;10936;49.836;7.078;2023-04-03T18:27:39;2.40;99.90
21551;DHT22;10936;49.836;7.078;2023-04-03T18:30:16;2.30;99.90
21551;DHT22;10936;49.836;7.078;2023-04-03T18:32:42;2.20;99.90
21551;DHT22;10936;49.836;7.078;2023-04-03T18:35:08;2.20;99.90
21551;DHT22;10936;49.836;7.078;2023-04-03T18:37:34;2.10;99.90
21551;DHT22;10936;49.836;7.078;2023-04-03T18:39:59;2.00;99.90
21551;DHT22;10936;49.836;7.078;2023-04-03T18:42:26;1.90;99.90
21551;DHT22;10936;49.836;7.078;2023-04-03T18:45:00;1.80;99.90
21551;DHT22;10936;49.836;7.078;2023-04-03T18:47:27;1.80;99.90
21551;DHT22;10936;49.836;7.078;2023-04-03T18:49:53;1.70;99.90
21551;DHT22;10936;49.836;7.078;2023-04-03T18:52:18;1.70;99.90
21551;DHT22;10936;49.836;7.078;2023-04-03T18:54:45;1.70;99.90
21551;DHT22;10936;49.836;7.078;2023-04-03T18:57:10;1.60;99.90
21551;DHT22;10936;49.836;7.078;2023-04-03T18:59:36;1.60;99.90
21551;DHT22;10936;49.836;7.078;2023-04-03T19:02:04;1.50;99.90
21551;DHT22;10936;49.836;7.078;2023-04-03T19:04:30;1.60;99.90
21551;DHT22;10936;49.836;7.078;2023-04-03T19:06:56;1.60;99.90
21551;DHT22;10936;49.836;7.078;2023-04-03T19:09:21;1.60;99.90
21551;DHT22;10936;49.836;7.078;2023-04-03T19:11:47;1.60;99.90
21551;DHT22;10936;49.836;7.078;2023-04-03T19:14:13;1.60;99.90
21551;DHT22;10936;49.836;7.078;2023-04-03T19:16:38;1.60;99.90
21551;DHT22;10936;49.836;7.078;2023-04-03T19:19:04;1.60;99.90
21551;DHT22;10936;49.836;7.078;2023-04-03T19:21:30;1.70;99.90
21551;DHT22;10936;49.836;7.078;2023-04-03T19:23:57;1.60;99.90
21551;DHT22;10936;49.836;7.078;2023-04-03T19:26:24;1.60;99.90
21551;DHT22;10936;49.836;7.078;2023-04-03T19:28:50;1.50;99.90
21551;DHT22;10936;49.836;7.078;2023-04-03T19:31:18;1.50;99.90
21551;DHT22;10936;49.836;7.078;2023-04-03T19:33:48;1.50;99.90
21551;DHT22;10936;49.836;7.078;2023-04-03T19:36:15;1.40;99.90
21551;DHT22;10936;49.836;7.078;2023-04-03T19:38:41;1.30;99.90
21551;DHT22;10936;49.836;7.078;2023-04-03T19:41:10;1.30;99.90
21551;DHT22;10936;49.836;7.078;2023-04-03T19:43:37;1.20;99.90
21551;DHT22;10936;49.836;7.078;2023-04-03T19:46:04;1.30;99.90
21551;DHT22;10936;49.836;7.078;2023-04-03T19:48:30;1.20;99.90
21551;DHT22;10936;49.836;7.078;2023-04-03T19:50:55;1.20;99.90
21551;DHT22;10936;49.836;7.078;2023-04-03T19:53:21;1.10;99.90
21551;DHT22;10936;49.836;7.078;2023-04-03T19:55:53;1.10;99.90
21551;DHT22;10936;49.836;7.078;2023-04-03T19:58:18;1.00;99.90
21551;DHT22;10936;49.836;7.078;2023-04-03T20:00:44;1.10;99.90
21551;DHT22;10936;49.836;7.078;2023-04-03T20:03:10;1.20;99.90
21551;DHT22;10936;49.836;7.078;2023-04-03T20:05:35;1.10;99.90
21551;DHT22;10936;49.836;7.078;2023-04-03T20:08:01;1.10;99.90
21551;DHT22;10936;49.836;7.078;2023-04-03T20:10:27;1.00;99.90
21551;DHT22;10936;49.836;7.078;2023-04-03T20:12:53;1.00;99.90
21551;DHT22;10936;49.836;7.078;2023-04-03T20:15:19;1.00;99.90
21551;DHT22;10936;49.836;7.078;2023-04-03T20:17:44;1.00;99.90
21551;DHT22;10936;49.836;7.078;2023-04-03T20:20:10;0.90;99.90
21551;DHT22;10936;49.836;7.078;2023-04-03T20:22:38;1.00;99.90
21551;DHT22;10936;49.836;7.078;2023-04-03T20:25:06;0.90;99.90
21551;DHT22;10936;49.836;7.078;2023-04-03T20:27:32;0.90;99.90
21551;DHT22;10936;49.836;7.078;2023-04-03T20:29:58;0.90;99.90
21551;DHT22;10936;49.836;7.078;2023-04-03T20:32:23;0.80;99.90
21551;DHT22;10936;49.836;7.078;2023-04-03T20:34:49;0.80;99.90
21551;DHT22;10936;49.836;7.078;2023-04-03T20:37:15;0.80;99.90
21551;DHT22;10936;49.836;7.078;2023-04-03T20:39:46;0.80;99.90
21551;DHT22;10936;49.836;7.078;2023-04-03T20:42:11;0.80;99.90
21551;DHT22;10936;49.836;7.078;2023-04-03T20:44:37;0.70;99.90
21551;DHT22;10936;49.836;7.078;2023-04-03T20:47:03;0.70;99.90
21551;DHT22;10936;49.836;7.078;2023-04-03T20:49:29;0.60;99.90
21551;DHT22;10936;49.836;7.078;2023-04-03T20:51:54;0.60;99.90
21551;DHT22;10936;49.836;7.078;2023-04-03T20:54:20;0.60;99.90
21551;DHT22;10936;49.836;7.078;2023-04-03T20:56:46;0.60;99.90
21551;DHT22;10936;49.836;7.078;2023-04-03T20:59:14;0.60;99.90
21551;DHT22;10936;49.836;7.078;2023-04-03T21:01:41;0.70;99.90
21551;DHT22;10936;49.836;7.078;2023-04-03T21:04:35;0.60;99.90
21551;DHT22;10936;49.836;7.078;2023-04-03T21:21:28;0.40;99.90
21551;DHT22;10936;49.836;7.078;2023-04-03T21:23:54;0.40;99.90
21551;DHT22;10936;49.836;7.078;2023-04-03T21:26:20;0.30;99.90
21551;DHT22;10936;49.836;7.078;2023-04-03T21:28:49;0.30;99.90
